createdAt,value
2022-10-06T00:01:21.453Z,16.29
2022-10-06T00:03:49.207Z,16.16
2022-10-06T00:06:19.114Z,16.05
2022-10-06T00:08:48.038Z,15.92
2022-10-06T00:11:17.302Z,15.90
2022-10-06T00:13:45.680Z,15.88
2022-10-06T00:16:17.317Z,15.73
2022-10-06T00:18:45.659Z,15.80
2022-10-06T00:21:13.571Z,15.73
2022-10-06T00:23:42.896Z,15.70
2022-10-06T00:26:12.231Z,15.67
2022-10-06T00:28:43.683Z,15.76
2022-10-06T00:31:12.044Z,15.74
2022-10-06T00:33:40.485Z,15.78
2022-10-06T00:36:08.482Z,15.74
2022-10-06T00:38:36.518Z,15.75
2022-10-06T00:41:05.977Z,15.75
2022-10-06T00:43:45.294Z,15.81
2022-10-06T00:46:17.007Z,15.82
2022-10-06T00:48:47.465Z,15.76
2022-10-06T00:51:15.963Z,15.78
2022-10-06T00:53:43.948Z,15.78
2022-10-06T00:56:13.623Z,15.69
2022-10-06T00:58:41.493Z,15.69
2022-10-06T01:01:10.417Z,15.72
2022-10-06T01:03:42.136Z,15.85
2022-10-06T01:06:10.530Z,15.82
2022-10-06T01:08:39.103Z,15.83
2022-10-06T01:11:07.416Z,15.83
2022-10-06T01:13:36.800Z,15.80
2022-10-06T01:16:11.595Z,15.74
2022-10-06T01:18:42.654Z,15.72
2022-10-06T01:21:15.903Z,15.70
2022-10-06T01:23:45.670Z,15.72
2022-10-06T01:26:15.698Z,15.68
2022-10-06T01:28:43.594Z,15.65
2022-10-06T01:31:11.918Z,15.71
2022-10-06T01:33:39.927Z,15.70
2022-10-06T01:36:08.679Z,15.67
2022-10-06T01:38:37.226Z,15.68
2022-10-06T01:41:08.715Z,15.70
2022-10-06T01:43:36.740Z,15.66
2022-10-06T01:46:06.498Z,15.68
2022-10-06T01:48:36.474Z,15.67
2022-10-06T01:51:04.711Z,15.67
2022-10-06T01:53:33.616Z,15.66
2022-10-06T01:56:01.448Z,15.64
2022-10-06T01:58:32.840Z,15.61
2022-10-06T02:01:05.963Z,15.60
2022-10-06T02:03:35.420Z,15.57
2022-10-06T02:06:03.434Z,15.57
2022-10-06T02:08:32.411Z,15.58
2022-10-06T02:11:06.778Z,15.53
2022-10-06T02:13:36.239Z,15.55
2022-10-06T02:16:06.622Z,15.49
2022-10-06T02:18:35.239Z,15.47
2022-10-06T02:21:03.759Z,15.47
2022-10-06T02:23:32.130Z,15.40
2022-10-06T02:26:00.541Z,15.42
2022-10-06T02:28:29.473Z,15.39
2022-10-06T02:31:03.271Z,15.38
2022-10-06T02:33:31.192Z,15.41
2022-10-06T02:35:59.349Z,15.39
2022-10-06T02:38:29.639Z,15.36
2022-10-06T02:40:58.096Z,15.35
2022-10-06T02:43:31.642Z,15.32
2022-10-06T02:46:05.216Z,15.27
2022-10-06T02:48:34.853Z,15.37
2022-10-06T02:51:06.938Z,15.37
2022-10-06T02:53:35.027Z,15.35
2022-10-06T02:56:05.387Z,15.33
2022-10-06T02:58:34.048Z,15.31
2022-10-06T03:01:10.326Z,15.31
2022-10-06T03:03:38.597Z,15.28
2022-10-06T03:06:21.685Z,15.27
2022-10-06T03:08:57.194Z,15.24
2022-10-06T03:11:27.270Z,15.25
2022-10-06T03:13:55.806Z,15.20
2022-10-06T03:16:27.149Z,15.19
2022-10-06T03:18:56.163Z,15.13
2022-10-06T03:21:25.964Z,15.16
2022-10-06T03:23:56.440Z,15.18
2022-10-06T03:26:28.667Z,15.16
2022-10-06T03:28:57.629Z,15.14
2022-10-06T03:31:27.351Z,15.11
2022-10-06T03:33:56.992Z,15.10
2022-10-06T03:36:29.338Z,15.10
2022-10-06T03:38:57.017Z,15.08
2022-10-06T03:41:26.800Z,14.98
2022-10-06T03:43:56.656Z,14.98
2022-10-06T03:46:28.069Z,15.01
2022-10-06T03:48:57.163Z,14.91
2022-10-06T03:51:28.194Z,14.99
2022-10-06T03:53:56.927Z,15.01
2022-10-06T03:56:26.619Z,15.02
2022-10-06T03:58:56.006Z,15.04
2022-10-06T04:01:26.787Z,14.97
2022-10-06T04:03:57.388Z,14.89
2022-10-06T04:06:26.961Z,14.89
2022-10-06T04:08:55.750Z,14.86
2022-10-06T04:11:25.039Z,14.89
2022-10-06T04:13:56.669Z,14.87
2022-10-06T04:16:27.039Z,14.86
2022-10-06T04:18:58.647Z,14.85
2022-10-06T04:21:27.486Z,14.82
2022-10-06T04:23:58.253Z,14.82
2022-10-06T04:26:28.063Z,14.80
2022-10-06T04:28:55.811Z,14.80
2022-10-06T04:31:25.303Z,14.85
2022-10-06T04:33:54.637Z,14.86
2022-10-06T04:36:26.615Z,14.80
2022-10-06T04:38:58.881Z,14.78
2022-10-06T04:41:31.451Z,14.76
2022-10-06T04:44:00.721Z,14.68
2022-10-06T04:46:45.587Z,14.71
2022-10-06T04:49:19.984Z,14.64
2022-10-06T04:51:50.356Z,14.69
2022-10-06T04:54:19.590Z,14.61
2022-10-06T04:56:50.673Z,14.58
2022-10-06T04:59:20.823Z,14.58
2022-10-06T05:01:49.250Z,14.51
2022-10-06T05:04:17.803Z,14.52
2022-10-06T05:06:45.494Z,14.48
2022-10-06T05:09:16.279Z,14.50
2022-10-06T05:11:54.004Z,14.46
2022-10-06T05:14:22.875Z,14.47
2022-10-06T05:16:51.129Z,14.45
2022-10-06T05:19:18.903Z,14.43
2022-10-06T05:21:46.635Z,14.44
2022-10-06T05:24:19.611Z,14.42
2022-10-06T05:26:47.323Z,14.42
2022-10-06T05:29:16.490Z,14.42
2022-10-06T05:31:45.403Z,14.41
2022-10-06T05:34:15.079Z,14.36
2022-10-06T05:36:42.871Z,14.36
2022-10-06T05:39:12.655Z,14.34
2022-10-06T05:41:47.047Z,14.34
2022-10-06T05:44:15.427Z,14.31
2022-10-06T05:46:44.786Z,14.30
2022-10-06T05:49:13.336Z,14.27
2022-10-06T05:51:49.270Z,14.26
2022-10-06T05:54:22.148Z,14.26
2022-10-06T05:56:51.908Z,14.25
2022-10-06T05:59:19.722Z,14.23
2022-10-06T06:01:48.015Z,14.18
2022-10-06T06:04:36.463Z,14.15
2022-10-06T06:07:04.546Z,14.15
2022-10-06T06:09:32.610Z,14.16
2022-10-06T06:12:03.326Z,14.19
2022-10-06T06:15:01.496Z,14.13
2022-10-06T06:17:34.778Z,14.19
2022-10-06T06:20:05.695Z,14.12
2022-10-06T06:22:33.719Z,14.15
2022-10-06T06:25:02.189Z,14.13
2022-10-06T06:27:32.357Z,14.09
2022-10-06T06:30:00.155Z,14.11
2022-10-06T06:32:29.612Z,14.16
2022-10-06T06:34:59.008Z,14.14
2022-10-06T06:37:28.596Z,14.11
2022-10-06T06:39:56.696Z,14.13
2022-10-06T06:42:24.571Z,14.15
2022-10-06T06:45:09.277Z,14.15
2022-10-06T06:47:41.958Z,14.18
2022-10-06T06:50:10.794Z,14.23
2022-10-06T06:52:41.865Z,14.18
2022-10-06T06:55:11.851Z,14.17
2022-10-06T06:57:39.623Z,14.14
2022-10-06T07:00:10.776Z,14.14
2022-10-06T07:02:40.103Z,14.12
2022-10-06T07:05:08.380Z,14.19
2022-10-06T07:07:36.906Z,14.20
2022-10-06T07:10:05.526Z,14.20
2022-10-06T07:12:34.991Z,14.23
2022-10-06T07:15:20.671Z,13.98
2022-10-06T07:18:11.488Z,14.26
2022-10-06T07:20:56.680Z,14.27
2022-10-06T07:23:43.370Z,14.25
2022-10-06T07:26:18.378Z,14.31
2022-10-06T07:28:48.685Z,14.34
2022-10-06T07:31:19.137Z,14.33
2022-10-06T07:33:49.419Z,14.36
2022-10-06T07:36:18.372Z,14.38
2022-10-06T07:38:47.278Z,14.39
2022-10-06T07:41:19.973Z,14.40
2022-10-06T07:43:53.684Z,14.40
2022-10-06T07:46:21.578Z,14.40
2022-10-06T07:48:59.206Z,14.45
2022-10-06T07:51:28.172Z,14.45
2022-10-06T07:53:57.843Z,14.49
2022-10-06T07:56:34.845Z,14.51
2022-10-06T07:59:03.177Z,14.52
2022-10-06T08:01:31.391Z,14.56
2022-10-06T08:04:00.550Z,14.53
2022-10-06T08:06:30.076Z,14.59
2022-10-06T08:08:57.933Z,14.67
2022-10-06T08:11:25.819Z,14.65
2022-10-06T08:13:53.636Z,14.68
2022-10-06T08:16:23.439Z,14.70
2022-10-06T08:18:53.390Z,14.70
2022-10-06T08:21:25.269Z,14.71
2022-10-06T08:23:57.262Z,14.75
2022-10-06T08:26:26.287Z,14.77
2022-10-06T08:28:57.528Z,14.83
2022-10-06T08:31:27.362Z,14.87
2022-10-06T08:33:57.128Z,14.84
2022-10-06T08:36:31.419Z,14.88
2022-10-06T08:39:00.430Z,14.90
2022-10-06T08:41:35.504Z,14.92
2022-10-06T08:44:08.422Z,14.94
2022-10-06T08:46:40.628Z,14.90
2022-10-06T08:49:17.063Z,14.93
2022-10-06T08:51:53.668Z,14.99
2022-10-06T08:54:29.921Z,14.97
2022-10-06T08:57:03.615Z,15.02
2022-10-06T08:59:34.965Z,15.05
2022-10-06T09:02:08.062Z,15.09
2022-10-06T09:04:35.898Z,15.13
2022-10-06T09:07:11.527Z,15.17
2022-10-06T09:10:01.083Z,15.16
2022-10-06T09:12:33.710Z,15.14
2022-10-06T09:15:16.384Z,15.13
2022-10-06T09:17:50.206Z,15.12
2022-10-06T09:20:22.704Z,15.12
2022-10-06T09:22:52.626Z,15.19
2022-10-06T09:25:25.392Z,15.28
2022-10-06T09:27:56.026Z,15.24
2022-10-06T09:30:26.284Z,15.31
2022-10-06T09:33:00.069Z,15.32
2022-10-06T09:35:30.064Z,15.38
2022-10-06T09:38:08.203Z,15.54
2022-10-06T09:40:39.538Z,15.80
2022-10-06T09:43:19.418Z,15.68
2022-10-06T09:45:47.164Z,15.82
2022-10-06T09:48:24.771Z,16.12
2022-10-06T09:51:08.963Z,16.42
2022-10-06T09:53:39.487Z,16.61
2022-10-06T09:56:15.576Z,16.68
2022-10-06T09:58:56.274Z,16.94
2022-10-06T10:01:26.670Z,17.20
2022-10-06T10:04:20.708Z,17.17
2022-10-06T10:06:48.675Z,17.34
2022-10-06T10:09:25.947Z,17.52
2022-10-06T10:12:28.175Z,17.72
2022-10-06T10:14:58.846Z,17.82
2022-10-06T10:17:45.895Z,17.75
2022-10-06T10:20:37.130Z,17.89
2022-10-06T10:23:27.290Z,18.00
2022-10-06T10:26:26.752Z,18.04
2022-10-06T10:29:14.113Z,18.12
2022-10-06T10:31:55.465Z,18.39
2022-10-06T10:34:46.046Z,18.38
2022-10-06T10:37:17.310Z,18.12
2022-10-06T10:39:51.611Z,18.46
2022-10-06T10:42:28.658Z,18.56
2022-10-06T10:45:00.915Z,18.78
2022-10-06T10:47:34.223Z,18.55
2022-10-06T10:50:08.408Z,18.19
2022-10-06T10:52:41.321Z,18.58
2022-10-06T10:55:19.651Z,18.58
2022-10-06T10:57:51.283Z,19.14
2022-10-06T11:00:21.928Z,19.53
2022-10-06T11:02:51.190Z,19.72
2022-10-06T11:05:36.444Z,19.93
2022-10-06T11:08:11.354Z,20.06
2022-10-06T11:10:45.514Z,20.26
2022-10-06T11:13:22.579Z,20.43
2022-10-06T11:16:25.526Z,20.70
2022-10-06T11:19:08.786Z,20.88
2022-10-06T11:21:43.413Z,20.90
2022-10-06T11:24:17.516Z,21.12
2022-10-06T11:27:11.195Z,21.15
2022-10-06T11:29:51.914Z,21.33
2022-10-06T11:32:28.769Z,21.42
2022-10-06T11:35:00.603Z,21.08
2022-10-06T11:37:39.762Z,21.10
2022-10-06T11:40:28.619Z,20.35
2022-10-06T11:43:03.263Z,19.77
2022-10-06T11:45:40.452Z,19.37
2022-10-06T11:48:24.163Z,19.12
2022-10-06T11:50:55.276Z,18.72
2022-10-06T11:53:40.121Z,18.53
2022-10-06T11:56:37.207Z,18.27
2022-10-06T11:59:13.367Z,18.19
2022-10-06T12:01:56.685Z,18.15
2022-10-06T12:04:26.249Z,18.14
2022-10-06T12:07:04.491Z,18.09
2022-10-06T12:09:51.942Z,18.04
2022-10-06T12:13:05.437Z,18.00
2022-10-06T12:18:54.623Z,17.87
2022-10-06T12:21:35.796Z,17.87
2022-10-06T12:24:23.317Z,17.82
2022-10-06T12:27:07.679Z,17.82
2022-10-06T12:29:43.586Z,17.84
2022-10-06T12:32:29.617Z,17.79
2022-10-06T12:35:04.169Z,17.82
2022-10-06T12:37:53.040Z,17.79
2022-10-06T12:40:49.156Z,17.75
2022-10-06T12:43:54.919Z,17.74
2022-10-06T12:46:30.004Z,17.78
2022-10-06T12:49:31.951Z,17.72
2022-10-06T12:52:09.136Z,17.72
2022-10-06T12:54:46.146Z,17.70
2022-10-06T12:57:18.681Z,17.68
2022-10-06T12:59:47.395Z,17.71
2022-10-06T13:02:20.022Z,17.69
2022-10-06T13:04:52.500Z,17.67
2022-10-06T13:07:23.386Z,17.66
2022-10-06T13:09:55.364Z,17.71
2022-10-06T13:12:26.687Z,17.67
2022-10-06T13:15:23.722Z,17.67
2022-10-06T13:17:54.431Z,17.66
2022-10-06T13:20:32.073Z,17.70
2022-10-06T13:23:03.059Z,17.68
2022-10-06T13:25:36.630Z,17.66
2022-10-06T13:28:04.375Z,17.63
2022-10-06T13:30:37.697Z,17.64
2022-10-06T13:33:08.395Z,17.64
2022-10-06T13:35:36.261Z,17.59
2022-10-06T13:38:06.370Z,17.60
2022-10-06T13:40:47.808Z,17.60
2022-10-06T13:43:20.119Z,17.59
2022-10-06T13:45:49.350Z,17.59
2022-10-06T13:48:20.480Z,17.64
2022-10-06T13:50:49.985Z,17.65
2022-10-06T13:53:28.319Z,17.61
2022-10-06T13:55:56.355Z,17.64
2022-10-06T13:58:27.744Z,17.63
2022-10-06T14:00:58.118Z,17.49
2022-10-06T14:03:29.334Z,17.65
2022-10-06T14:06:09.415Z,17.65
2022-10-06T14:08:38.798Z,17.66
2022-10-06T14:11:08.875Z,17.68
2022-10-06T14:13:51.741Z,17.69
2022-10-06T14:16:22.005Z,17.71
2022-10-06T14:21:38.542Z,17.76
2022-10-06T14:24:23.788Z,17.79
2022-10-06T14:26:52.089Z,17.77
2022-10-06T14:29:20.295Z,17.79
2022-10-06T14:31:48.824Z,17.80
2022-10-06T14:34:18.388Z,17.82
2022-10-06T14:36:48.026Z,17.86
2022-10-06T14:39:17.212Z,17.72
2022-10-06T14:41:45.470Z,17.86
2022-10-06T14:44:15.513Z,17.80
2022-10-06T14:46:45.279Z,17.81
2022-10-06T14:49:14.351Z,17.81
2022-10-06T14:51:44.408Z,17.77
2022-10-06T14:54:12.570Z,17.77
2022-10-06T14:56:42.294Z,17.75
2022-10-06T14:59:14.421Z,17.71
2022-10-06T15:01:42.212Z,17.77
2022-10-06T15:04:13.516Z,17.73
2022-10-06T15:06:59.144Z,17.71
2022-10-06T15:09:29.711Z,17.69
2022-10-06T15:12:00.791Z,17.63
2022-10-06T15:14:29.600Z,17.59
2022-10-06T15:16:59.104Z,17.57
2022-10-06T15:19:29.950Z,17.61
2022-10-06T15:21:57.713Z,17.55
2022-10-06T15:24:25.472Z,17.55
2022-10-06T15:27:10.601Z,17.54
2022-10-06T15:29:39.630Z,17.52
2022-10-06T15:32:08.238Z,17.52
2022-10-06T15:34:37.678Z,17.50
2022-10-06T15:37:06.167Z,17.45
2022-10-06T15:39:36.808Z,17.43
2022-10-06T15:42:05.540Z,17.42
2022-10-06T15:44:34.901Z,17.39
2022-10-06T15:47:06.223Z,17.34
2022-10-06T15:49:38.215Z,17.33
2022-10-06T15:52:06.885Z,17.30
2022-10-06T15:54:37.772Z,17.25
2022-10-06T15:57:08.410Z,17.19
2022-10-06T15:59:36.412Z,17.15
2022-10-06T16:02:08.607Z,17.20
2022-10-06T16:04:48.820Z,17.17
2022-10-06T16:07:20.435Z,17.12
2022-10-06T16:09:49.816Z,17.11
2022-10-06T16:12:20.211Z,17.03
2022-10-06T16:14:48.244Z,17.04
2022-10-06T16:17:18.470Z,17.03
2022-10-06T16:19:46.898Z,16.99
2022-10-06T16:22:17.105Z,16.94
2022-10-06T16:24:44.804Z,16.93
2022-10-06T16:27:13.731Z,16.91
2022-10-06T16:29:41.666Z,16.86
2022-10-06T16:32:09.631Z,16.81
2022-10-06T16:34:38.729Z,16.74
2022-10-06T16:37:06.472Z,16.66
2022-10-06T16:39:34.196Z,16.62
2022-10-06T16:42:02.192Z,16.58
2022-10-06T16:44:29.899Z,16.55
2022-10-06T16:46:57.703Z,16.48
2022-10-06T16:49:27.177Z,16.50
2022-10-06T16:51:56.283Z,16.44
2022-10-06T16:54:24.835Z,16.40
2022-10-06T16:56:54.255Z,16.32
2022-10-06T16:59:23.447Z,16.23
2022-10-06T17:01:51.679Z,16.15
2022-10-06T17:04:21.565Z,16.06
2022-10-06T17:06:51.476Z,16.00
2022-10-06T17:09:21.930Z,15.91
2022-10-06T17:11:51.480Z,15.85
2022-10-06T17:14:21.137Z,15.80
2022-10-06T17:16:50.701Z,15.74
2022-10-06T17:19:20.325Z,15.69
2022-10-06T17:21:52.772Z,15.63
2022-10-06T17:24:25.481Z,15.56
2022-10-06T17:26:53.282Z,15.47
2022-10-06T17:29:22.994Z,15.45
2022-10-06T17:31:59.052Z,15.38
2022-10-06T17:34:32.382Z,15.32
2022-10-06T17:37:02.207Z,15.31
2022-10-06T17:39:31.946Z,15.25
2022-10-06T17:42:09.110Z,15.18
2022-10-06T17:44:36.951Z,15.16
2022-10-06T17:47:04.779Z,15.11
2022-10-06T17:49:34.728Z,15.06
2022-10-06T17:52:05.790Z,14.98
2022-10-06T17:54:34.842Z,14.98
2022-10-06T17:57:02.589Z,14.93
2022-10-06T17:59:31.954Z,14.90
2022-10-06T18:02:02.452Z,14.81
2022-10-06T18:04:31.045Z,14.80
2022-10-06T18:06:58.867Z,14.77
2022-10-06T18:09:26.832Z,14.73
2022-10-06T18:11:56.263Z,14.68
2022-10-06T18:14:25.741Z,14.68
2022-10-06T18:16:56.652Z,14.64
2022-10-06T18:19:29.737Z,14.63
2022-10-06T18:21:59.023Z,14.59
2022-10-06T18:24:31.310Z,14.54
2022-10-06T18:27:01.658Z,14.40
2022-10-06T18:29:31.948Z,14.47
2022-10-06T18:32:27.773Z,14.46
2022-10-06T18:37:38.776Z,14.35
2022-10-06T18:40:17.884Z,14.34
2022-10-06T18:42:51.014Z,14.31
2022-10-06T18:45:39.451Z,14.24
2022-10-06T18:48:24.944Z,14.19
2022-10-06T18:51:02.367Z,14.19
2022-10-06T18:53:39.037Z,14.17
2022-10-06T18:56:07.755Z,13.53
2022-10-06T18:58:40.445Z,13.48
2022-10-06T19:01:09.017Z,13.34
2022-10-06T19:03:37.194Z,13.36
2022-10-06T19:06:05.111Z,13.38
2022-10-06T19:08:33.031Z,13.62
2022-10-06T19:11:20.597Z,13.78
2022-10-06T19:13:52.012Z,13.75
2022-10-06T19:16:21.085Z,13.82
2022-10-06T19:18:50.578Z,13.82
2022-10-06T19:21:18.302Z,13.82
2022-10-06T19:23:46.348Z,13.84
2022-10-06T19:26:15.787Z,13.92
2022-10-06T19:28:43.554Z,13.94
2022-10-06T19:31:14.945Z,13.93
2022-10-06T19:33:43.220Z,13.88
2022-10-06T19:36:11.471Z,13.84
2022-10-06T19:38:40.544Z,13.87
2022-10-06T19:41:25.645Z,13.77
2022-10-06T19:43:57.952Z,13.72
2022-10-06T19:46:31.425Z,13.68
2022-10-06T19:49:05.455Z,13.69
2022-10-06T19:51:34.417Z,13.65
2022-10-06T19:54:03.034Z,13.60
2022-10-06T19:56:32.989Z,13.62
2022-10-06T19:59:00.813Z,13.50
2022-10-06T20:01:31.405Z,13.46
2022-10-06T20:04:00.095Z,13.55
2022-10-06T20:06:30.564Z,13.51
2022-10-06T20:08:58.765Z,13.45
2022-10-06T20:11:29.720Z,13.42
2022-10-06T20:13:57.602Z,13.34
2022-10-06T20:16:25.355Z,13.45
2022-10-06T20:18:54.490Z,13.49
2022-10-06T20:21:24.586Z,13.44
2022-10-06T20:23:53.631Z,13.41
2022-10-06T20:26:24.632Z,13.32
2022-10-06T20:28:52.647Z,13.38
2022-10-06T20:31:24.316Z,13.43
2022-10-06T20:33:56.331Z,13.30
2022-10-06T20:36:26.516Z,13.32
2022-10-06T20:39:15.316Z,13.20
2022-10-06T20:41:45.850Z,13.38
2022-10-06T20:44:14.273Z,13.40
2022-10-06T20:46:42.554Z,13.40
2022-10-06T20:49:14.846Z,13.35
2022-10-06T20:51:46.556Z,13.29
2022-10-06T20:54:16.078Z,13.23
2022-10-06T20:56:44.063Z,13.21
2022-10-06T20:59:13.015Z,13.27
2022-10-06T21:01:41.043Z,13.23
2022-10-06T21:04:09.520Z,13.14
2022-10-06T21:06:38.955Z,13.10
2022-10-06T21:09:07.912Z,13.09
2022-10-06T21:11:35.940Z,13.07
2022-10-06T21:14:04.119Z,13.05
2022-10-06T21:16:34.287Z,13.06
2022-10-06T21:19:03.840Z,12.92
2022-10-06T21:21:32.084Z,12.93
2022-10-06T21:24:02.127Z,12.95
2022-10-06T21:26:30.138Z,12.81
2022-10-06T21:28:59.175Z,12.81
2022-10-06T21:31:28.270Z,12.90
2022-10-06T21:33:56.758Z,12.88
2022-10-06T21:36:26.128Z,12.83
2022-10-06T21:38:56.482Z,12.72
2022-10-06T21:41:31.434Z,12.81
2022-10-06T21:44:00.598Z,12.86
2022-10-06T21:46:30.322Z,12.75
2022-10-06T21:48:59.966Z,12.73
2022-10-06T21:51:29.050Z,12.71
2022-10-06T21:53:57.797Z,12.74
2022-10-06T21:56:28.576Z,12.76
2022-10-06T21:58:57.054Z,12.69
2022-10-06T22:01:26.819Z,12.72
2022-10-06T22:03:54.881Z,12.66
2022-10-06T22:06:22.774Z,12.64
2022-10-06T22:08:50.957Z,12.59
2022-10-06T22:11:21.414Z,12.56
2022-10-06T22:13:53.763Z,12.52
2022-10-06T22:16:23.686Z,12.57
2022-10-06T22:18:52.231Z,12.54
2022-10-06T22:21:22.770Z,12.54
2022-10-06T22:23:55.704Z,12.53
2022-10-06T22:26:23.631Z,12.59
2022-10-06T22:28:56.749Z,12.61
2022-10-06T22:31:26.485Z,12.60
2022-10-06T22:33:56.382Z,12.58
2022-10-06T22:36:25.073Z,12.52
2022-10-06T22:38:52.857Z,12.59
2022-10-06T22:41:20.706Z,12.57
2022-10-06T22:43:48.580Z,12.52
2022-10-06T22:46:17.708Z,12.50
2022-10-06T22:48:45.445Z,12.50
2022-10-06T22:51:13.089Z,12.50
2022-10-06T22:53:40.806Z,12.49
2022-10-06T22:56:08.873Z,12.45
2022-10-06T22:58:38.723Z,12.43
2022-10-06T23:01:11.388Z,12.45
2022-10-06T23:03:41.111Z,12.45
2022-10-06T23:06:11.278Z,12.42
2022-10-06T23:08:40.247Z,12.44
2022-10-06T23:11:10.265Z,12.44
2022-10-06T23:13:38.349Z,12.41
2022-10-06T23:16:08.465Z,12.35
2022-10-06T23:18:38.221Z,12.47
2022-10-06T23:21:09.073Z,12.50
2022-10-06T23:23:37.368Z,12.51
2022-10-06T23:26:06.485Z,12.51
2022-10-06T23:28:34.433Z,12.52
2022-10-06T23:31:04.296Z,12.48
2022-10-06T23:33:32.769Z,12.48
2022-10-06T23:36:01.968Z,12.48
2022-10-06T23:38:31.116Z,12.45
2022-10-06T23:40:59.226Z,12.42
2022-10-06T23:43:26.997Z,12.46
2022-10-06T23:45:54.864Z,12.44
2022-10-06T23:48:22.686Z,12.47
2022-10-06T23:50:58.022Z,12.51
2022-10-06T23:53:26.006Z,12.50
2022-10-06T23:55:55.335Z,12.49
2022-10-06T23:58:23.819Z,12.46
